Time;durP1;ratioP1;P1;durP2;ratioP2;P2;SDS_P1;SDS_P2;PMS_P1;PMS_P2;Temp;Humidity;BMP_temperature;BMP_pressure;BME280_temperature;BME280_humidity;BME280_pressure;Samples;Min_cycle;Max_cycle;Signal;HPM_P1;HPM_P2
2023/07/09 00:00:55;;;;;;;6.50;3.15;;;29.80;62.90;;;;;;10018845;28;20053;-60
2023/07/09 00:05:48;;;;;;;6.30;3.35;;;29.70;63.00;;;;;;10029268;28;20392;-61
2023/07/09 00:10:38;;;;;;;6.78;3.38;;;29.50;63.00;;;;;;10038711;28;20041;-60
2023/07/09 00:15:29;;;;;;;7.30;3.30;;;29.40;63.20;;;;;;10048004;28;20030;-61
2023/07/09 00:20:19;;;;;;;5.60;3.10;;;29.30;63.40;;;;;;10016791;28;20042;-60
2023/07/09 00:25:16;;;;;;;5.45;3.42;;;29.20;63.60;;;;;;10024990;28;20018;-61
2023/07/09 00:30:15;;;;;;;5.10;2.75;;;29.20;63.90;;;;;;10028929;28;20034;-60
2023/07/09 00:35:06;;;;;;;7.97;3.60;;;29.30;64.00;;;;;;10036613;28;20048;-60
2023/07/09 00:39:57;;;;;;;6.97;3.63;;;29.20;64.10;;;;;;10037559;28;20034;-61
2023/07/09 00:44:51;;;;;;;6.90;2.95;;;29.20;64.30;;;;;;10041294;28;20136;-63
2023/07/09 00:49:46;;;;;;;4.45;2.65;;;29.00;64.50;;;;;;10039171;28;20536;-60
2023/07/09 00:54:41;;;;;;;7.53;3.08;;;28.80;64.70;;;;;;10030480;28;20065;-60
2023/07/09 00:59:33;;;;;;;9.82;3.50;;;28.90;64.90;;;;;;10020389;28;20038;-61
2023/07/09 01:04:24;;;;;;;8.32;3.45;;;28.90;65.00;;;;;;10031499;28;20124;-60
2023/07/09 01:09:15;;;;;;;11.20;3.75;;;28.70;65.30;;;;;;10038815;28;20049;-60
2023/07/09 01:14:11;;;;;;;9.75;3.83;;;28.70;65.50;;;;;;10037492;28;20026;-60
2023/07/09 01:19:01;;;;;;;7.70;2.90;;;28.40;65.60;;;;;;10049737;28;20600;-60
2023/07/09 01:23:52;;;;;;;7.18;2.60;;;28.20;65.90;;;;;;10027878;28;20145;-60
2023/07/09 01:28:44;;;;;;;8.15;3.80;;;28.20;66.20;;;;;;10036525;28;20504;-60
2023/07/09 01:33:34;;;;;;;5.80;3.00;;;28.10;66.20;;;;;;10037737;28;20045;-60
2023/07/09 01:38:30;;;;;;;4.68;3.03;;;28.20;66.20;;;;;;10040898;28;20025;-61
2023/07/09 01:43:20;;;;;;;6.15;2.95;;;28.10;66.40;;;;;;10045377;28;20152;-60
2023/07/09 01:48:15;;;;;;;4.05;2.55;;;28.20;66.50;;;;;;10052379;28;20108;-62
2023/07/09 01:53:08;;;;;;;4.13;2.72;;;28.00;66.50;;;;;;10045716;28;20076;-62
2023/07/09 01:57:59;;;;;;;7.55;3.22;;;27.90;66.80;;;;;;10027726;28;20233;-60
2023/07/09 02:02:50;;;;;;;5.28;3.20;;;27.90;67.10;;;;;;10030587;28;20148;-60
2023/07/09 02:07:41;;;;;;;4.10;2.95;;;27.90;67.30;;;;;;10040480;28;20502;-59
2023/07/09 02:12:31;;;;;;;5.00;3.17;;;27.80;67.40;;;;;;10045483;28;20399;-60
2023/07/09 02:17:22;;;;;;;3.63;2.70;;;27.80;67.40;;;;;;10049143;28;20036;-58
2023/07/09 02:22:12;;;;;;;3.88;2.53;;;27.80;67.60;;;;;;10030246;28;20117;-59
2023/07/09 02:27:05;;;;;;;4.80;3.03;;;27.60;67.90;;;;;;10032508;28;20041;-60
2023/07/09 02:31:58;;;;;;;5.32;3.47;;;27.60;68.10;;;;;;10037045;28;20496;-59
2023/07/09 02:36:49;;;;;;;4.50;3.10;;;27.50;68.40;;;;;;10038946;28;20022;-58
2023/07/09 02:41:40;;;;;;;5.05;3.30;;;27.50;68.60;;;;;;10035476;28;20518;-60
2023/07/09 02:46:31;;;;;;;4.93;2.80;;;27.40;68.70;;;;;;10028287;28;20237;-60
2023/07/09 02:51:21;;;;;;;4.75;2.67;;;27.20;69.00;;;;;;10031972;28;20639;-60
2023/07/09 02:56:12;;;;;;;5.63;3.28;;;27.00;69.50;;;;;;10024493;28;20042;-59
2023/07/09 03:01:03;;;;;;;5.43;2.90;;;26.90;69.60;;;;;;10018836;28;20034;-60
2023/07/09 03:05:54;;;;;;;8.35;3.35;;;26.80;69.90;;;;;;10016273;28;20064;-60
2023/07/09 03:10:44;;;;;;;4.35;2.83;;;26.80;70.70;;;;;;10028773;28;20771;-59
2023/07/09 03:15:35;;;;;;;5.85;3.10;;;26.70;70.20;;;;;;10020721;28;20034;-59
2023/07/09 03:20:26;;;;;;;5.53;3.28;;;26.70;70.40;;;;;;10018225;28;20034;-60
2023/07/09 03:25:16;;;;;;;6.95;3.58;;;26.50;70.70;;;;;;10025744;28;20030;-59
2023/07/09 03:30:07;;;;;;;4.38;3.50;;;26.40;71.00;;;;;;10023049;28;20049;-61
2023/07/09 03:34:58;;;;;;;5.80;3.38;;;26.50;71.30;;;;;;10033209;28;20398;-60
2023/07/09 03:39:48;;;;;;;4.60;2.67;;;26.50;71.30;;;;;;10034514;28;20053;-59
2023/07/09 03:44:40;;;;;;;8.52;3.72;;;26.50;71.70;;;;;;10036022;28;20054;-59
2023/07/09 03:49:31;;;;;;;5.72;3.97;;;26.30;72.00;;;;;;10047691;28;20022;-60
2023/07/09 03:54:21;;;;;;;4.82;2.97;;;26.20;72.10;;;;;;10031244;28;20119;-60
2023/07/09 03:59:12;;;;;;;4.28;2.97;;;25.90;72.80;;;;;;10022254;28;20403;-60
2023/07/09 04:04:02;;;;;;;4.85;3.40;;;25.90;73.20;;;;;;10027237;28;20113;-59
2023/07/09 04:08:53;;;;;;;7.18;3.17;;;25.90;73.30;;;;;;10041683;28;20037;-61
2023/07/09 04:13:44;;;;;;;4.72;2.67;;;26.00;73.50;;;;;;10048472;28;20124;-60
2023/07/09 04:18:36;;;;;;;4.50;3.15;;;26.10;73.60;;;;;;10049178;28;20037;-61
2023/07/09 04:23:26;;;;;;;5.97;3.65;;;26.20;73.60;;;;;;10019737;28;20052;-61
2023/07/09 04:28:17;;;;;;;5.55;2.88;;;26.10;73.90;;;;;;10024868;28;20056;-61
2023/07/09 04:33:09;;;;;;;5.45;2.97;;;26.20;74.00;;;;;;10033029;28;20353;-60
2023/07/09 04:38:00;;;;;;;12.30;3.63;;;26.30;74.00;;;;;;10037505;28;20037;-60
2023/07/09 04:42:50;;;;;;;6.75;3.38;;;26.20;74.20;;;;;;10040632;28;20111;-65
2023/07/09 04:47:41;;;;;;;5.28;2.97;;;26.20;74.40;;;;;;10051682;28;20059;-60
2023/07/09 04:52:31;;;;;;;5.32;3.28;;;26.20;74.40;;;;;;10055292;28;20059;-60
2023/07/09 04:57:22;;;;;;;5.10;3.08;;;26.20;74.50;;;;;;10029989;28;20084;-61
2023/07/09 05:02:13;;;;;;;5.05;2.90;;;26.10;74.60;;;;;;10023514;28;20507;-60
2023/07/09 05:07:04;;;;;;;7.38;3.05;;;26.20;74.70;;;;;;10020292;28;20041;-59
2023/07/09 05:11:54;;;;;;;5.70;2.90;;;26.20;74.50;;;;;;10039982;28;20120;-59
2023/07/09 05:16:45;;;;;;;5.15;2.63;;;26.10;74.70;;;;;;10041297;28;20033;-60
2023/07/09 05:21:36;;;;;;;3.80;2.83;;;26.20;74.80;;;;;;10024197;28;20029;-60
2023/07/09 05:26:26;;;;;;;3.80;2.90;;;26.30;74.70;;;;;;10033496;28;20094;-59
2023/07/09 05:31:18;;;;;;;4.90;2.83;;;26.40;74.80;;;;;;10042628;28;20044;-60
2023/07/09 05:36:15;;;;;;;5.85;3.45;;;26.50;74.70;;;;;;10028002;28;20166;-60
2023/07/09 05:41:07;;;;;;;4.28;3.03;;;26.40;74.90;;;;;;10043285;28;20029;-60
2023/07/09 05:45:58;;;;;;;4.97;3.13;;;26.30;75.10;;;;;;10038644;28;20056;-60
2023/07/09 05:50:52;;;;;;;5.43;2.75;;;26.30;75.30;;;;;;10055989;28;20408;-59
2023/07/09 05:55:43;;;;;;;6.47;3.08;;;26.10;75.50;;;;;;10037108;28;20026;-59
2023/07/09 06:00:34;;;;;;;6.22;3.53;;;26.20;75.50;;;;;;10024480;28;20586;-60
2023/07/09 06:05:25;;;;;;;4.60;3.47;;;26.30;75.60;;;;;;10008425;28;20104;-60
2023/07/09 06:10:16;;;;;;;5.80;3.08;;;26.30;75.50;;;;;;10024886;28;20128;-60
2023/07/09 06:15:07;;;;;;;5.93;4.32;;;26.60;75.30;;;;;;10019175;28;20023;-59
2023/07/09 06:19:58;;;;;;;5.90;3.45;;;26.60;75.30;;;;;;10008342;28;20026;-60
2023/07/09 06:24:48;;;;;;;5.50;3.45;;;26.70;75.20;;;;;;10025518;28;20033;-60
2023/07/09 06:29:39;;;;;;;7.13;3.30;;;26.80;75.50;;;;;;10031883;28;20463;-59
2023/07/09 06:34:30;;;;;;;4.63;3.22;;;27.00;75.30;;;;;;10036859;28;20040;-59
2023/07/09 06:39:20;;;;;;;6.70;3.42;;;27.00;75.30;;;;;;10039423;28;20032;-58
2023/07/09 06:44:11;;;;;;;5.55;3.70;;;26.90;75.50;;;;;;10048135;28;20055;-59
2023/07/09 06:49:02;;;;;;;5.80;3.08;;;27.00;75.50;;;;;;10040982;28;20029;-59
2023/07/09 06:53:53;;;;;;;3.72;2.78;;;27.10;75.40;;;;;;10022278;28;20033;-59
2023/07/09 06:58:45;;;;;;;5.03;3.75;;;27.30;75.40;;;;;;10026071;28;20037;-59
2023/07/09 07:03:37;;;;;;;4.30;3.00;;;27.40;75.30;;;;;;10027652;28;20033;-59
2023/07/09 07:08:28;;;;;;;6.60;3.40;;;27.60;75.20;;;;;;10029667;28;20044;-60
2023/07/09 07:13:19;;;;;;;3.80;3.00;;;27.70;75.10;;;;;;10041911;28;20041;-63
2023/07/09 07:18:09;;;;;;;8.02;3.35;;;27.70;75.10;;;;;;10048569;28;20215;-59
2023/07/09 07:23:00;;;;;;;5.35;3.10;;;27.80;75.00;;;;;;10019579;28;20037;-59
2023/07/09 07:27:51;;;;;;;5.28;2.90;;;27.80;74.80;;;;;;10029954;28;20048;-60
2023/07/09 07:32:47;;;;;;;4.65;2.90;;;27.80;74.70;;;;;;10026789;28;20045;-59
2023/07/09 07:37:38;;;;;;;5.10;3.47;;;28.10;74.50;;;;;;10035181;28;20037;-60
2023/07/09 07:42:28;;;;;;;5.55;3.92;;;28.20;74.50;;;;;;10033411;28;20049;-60
2023/07/09 07:47:19;;;;;;;6.10;3.58;;;28.30;74.60;;;;;;10039175;28;20025;-60
2023/07/09 07:52:10;;;;;;;6.05;3.15;;;28.30;74.60;;;;;;10042858;28;20042;-60
2023/07/09 07:57:01;;;;;;;4.68;3.42;;;28.40;74.40;;;;;;10019332;28;20038;-62
2023/07/09 08:01:51;;;;;;;4.53;2.72;;;28.50;74.50;;;;;;10024281;28;20026;-61
2023/07/09 08:06:42;;;;;;;3.90;2.92;;;28.60;74.40;;;;;;10026167;28;20040;-62
2023/07/09 08:11:32;;;;;;;5.18;3.40;;;28.70;74.30;;;;;;10046393;28;20041;-60
2023/07/09 08:16:23;;;;;;;5.93;2.90;;;28.80;74.20;;;;;;10052205;28;20026;-62
2023/07/09 08:21:14;;;;;;;5.47;3.85;;;28.90;74.00;;;;;;10026999;28;20607;-59
2023/07/09 08:26:04;;;;;;;8.40;2.90;;;29.10;73.70;;;;;;10025337;28;20053;-60
2023/07/09 08:30:56;;;;;;;6.32;4.20;;;29.20;73.50;;;;;;10029121;28;20103;-61
2023/07/09 08:35:49;;;;;;;6.70;3.47;;;29.30;73.30;;;;;;10035309;28;20180;-61
2023/07/09 08:40:41;;;;;;;5.13;3.13;;;29.50;73.10;;;;;;10036488;28;20463;-60
2023/07/09 08:45:41;;;;;;;4.70;3.58;;;29.80;72.70;;;;;;10038714;28;20049;-61
2023/07/09 08:50:39;;;;;;;6.03;3.63;;;29.80;72.50;;;;;;10038160;28;20436;-60
2023/07/09 08:55:39;;;;;;;7.15;2.83;;;29.90;72.10;;;;;;10023314;28;20026;-60
2023/07/09 09:00:39;;;;;;;5.00;2.50;;;30.10;71.70;;;;;;10021328;28;20096;-60
2023/07/09 09:05:33;;;;;;;3.75;2.80;;;30.20;71.40;;;;;;10032029;28;20116;-59
2023/07/09 09:10:47;;;;;;;4.90;2.93;;;30.30;71.10;;;;;;10043965;28;20054;-61
2023/07/09 09:15:41;;;;;;;6.35;3.80;;;30.60;70.70;;;;;;10036752;28;20459;-59
2023/07/09 09:20:32;;;;;;;5.75;2.90;;;30.50;70.60;;;;;;10014676;28;20057;-59
2023/07/09 09:25:31;;;;;;;4.40;2.70;;;30.70;70.30;;;;;;10031370;28;20464;-60
2023/07/09 09:30:24;;;;;;;6.53;3.70;;;31.00;69.90;;;;;;10034771;28;20109;-59
2023/07/09 09:35:17;;;;;;;4.43;3.40;;;31.20;69.50;;;;;;10042923;28;20026;-60
2023/07/09 09:40:09;;;;;;;4.22;2.75;;;31.40;69.10;;;;;;10043675;28;20034;-61
2023/07/09 09:45:01;;;;;;;7.38;3.22;;;31.50;68.90;;;;;;10048643;28;20049;-58
2023/07/09 09:49:53;;;;;;;5.38;3.40;;;31.60;68.70;;;;;;10057390;28;20041;-61
2023/07/09 09:55:10;;;;;;;5.97;3.25;;;31.70;68.30;;;;;;10036365;28;20034;-59
2023/07/09 10:00:02;;;;;;;6.53;3.00;;;31.90;67.50;;;;;;10017272;28;20049;-61
2023/07/09 10:04:52;;;;;;;7.25;3.15;;;31.90;67.30;;;;;;10029576;28;20033;-59
2023/07/09 10:09:54;;;;;;;4.47;2.92;;;31.90;67.10;;;;;;10040994;28;20030;-59
2023/07/09 10:15:05;;;;;;;5.13;3.25;;;32.20;66.50;;;;;;10045299;28;20037;-61
2023/07/09 10:20:25;;;;;;;6.53;2.55;;;32.30;66.00;;;;;;10035711;28;20030;-61
2023/07/09 10:25:51;;;;;;;3.67;2.63;;;32.60;65.40;;;;;;10024602;28;20084;-61
2023/07/09 10:30:56;;;;;;;3.42;2.70;;;32.70;65.00;;;;;;10020344;28;20049;-59
2023/07/09 10:35:59;;;;;;;4.70;2.80;;;32.80;64.50;;;;;;10032265;28;20025;-59
2023/07/09 10:40:54;;;;;;;3.08;2.22;;;33.00;63.70;;;;;;10039580;28;20033;-61
2023/07/09 10:45:51;;;;;;;3.95;2.55;;;33.10;63.10;;;;;;10046524;28;20603;-59
2023/07/09 10:50:47;;;;;;;5.10;2.90;;;33.50;62.60;;;;;;10045387;28;20041;-61
2023/07/09 10:55:47;;;;;;;3.10;2.47;;;33.80;61.90;;;;;;10029818;28;20164;-59
2023/07/09 11:00:40;;;;;;;3.97;2.50;;;34.10;61.10;;;;;;10023867;28;20036;-61
2023/07/09 11:05:32;;;;;;;4.15;2.38;;;34.30;60.30;;;;;;10033941;28;20041;-61
2023/07/09 11:10:37;;;;;;;6.13;2.50;;;34.70;59.70;;;;;;10045476;28;20042;-62
2023/07/09 11:15:37;;;;;;;3.17;2.22;;;35.00;58.70;;;;;;10045090;28;20029;-61
2023/07/09 11:20:33;;;;;;;6.20;2.70;;;35.20;58.40;;;;;;10030066;28;20056;-60
2023/07/09 11:25:41;;;;;;;4.68;2.60;;;35.40;57.90;;;;;;10027098;28;20096;-60
2023/07/09 11:30:32;;;;;;;4.43;2.50;;;35.60;57.50;;;;;;10033454;28;20049;-61
2023/07/09 11:35:28;;;;;;;5.47;2.35;;;35.70;57.20;;;;;;10021595;28;20533;-62
2023/07/09 11:40:21;;;;;;;3.83;2.47;;;35.70;57.00;;;;;;10034430;28;20558;-61
2023/07/09 11:45:12;;;;;;;;;;;36.00;56.70;;;;;;10044140;28;20045;-59
2023/07/09 11:50:20;;;;;;;3.75;2.95;;;36.20;56.20;;;;;;10047833;28;19920;-60
2023/07/09 11:55:23;;;;;;;5.90;2.28;;;36.40;56.30;;;;;;10032851;28;20381;-59
2023/07/09 12:00:14;;;;;;;;;;;36.50;55.90;;;;;;10025636;28;20279;-60
2023/07/09 12:05:06;;;;;;;3.25;2.42;;;36.50;55.50;;;;;;10024654;28;19916;-61
2023/07/09 12:09:56;;;;;;;4.20;2.75;;;36.80;55.80;;;;;;10013713;28;20038;-61
2023/07/09 12:14:48;;;;;;;4.20;2.72;;;36.70;55.50;;;;;;10029289;28;20033;-59
2023/07/09 12:19:39;;;;;;;3.75;2.50;;;37.00;55.10;;;;;;10024416;28;20030;-60
2023/07/09 12:24:37;;;;;;;5.63;2.67;;;37.30;54.80;;;;;;10024980;28;20060;-61
2023/07/09 12:29:29;;;;;;;3.78;2.13;;;37.30;54.60;;;;;;10030488;28;20040;-61
2023/07/09 12:34:20;;;;;;;6.10;2.60;;;37.10;54.60;;;;;;10029720;28;20041;-61
2023/07/09 12:39:12;;;;;;;3.92;2.45;;;37.20;54.40;;;;;;10032125;28;20034;-59
2023/07/09 12:44:04;;;;;;;4.07;2.83;;;37.50;54.10;;;;;;10035787;28;20054;-60
2023/07/09 12:48:56;;;;;;;3.55;2.60;;;38.10;53.90;;;;;;10032571;28;20013;-61
2023/07/09 12:53:47;;;;;;;5.00;2.60;;;38.60;53.60;;;;;;10038946;28;20052;-60
2023/07/09 12:58:38;;;;;;;;;;;38.70;53.10;;;;;;10024669;28;20025;-61
2023/07/09 13:03:31;;;;;;;4.40;3.13;;;39.40;52.60;;;;;;10033318;28;19913;-61
2023/07/09 13:08:21;;;;;;;5.78;2.80;;;40.30;52.60;;;;;;10041818;28;20061;-60
2023/07/09 13:13:13;;;;;;;3.53;2.50;;;41.50;51.50;;;;;;10055664;28;20216;-61
2023/07/09 13:18:06;;;;;;;5.00;2.20;;;41.20;50.50;;;;;;10052796;28;20037;-59
2023/07/09 13:22:57;;;;;;;6.32;2.90;;;40.80;50.20;;;;;;10024261;28;20041;-60
2023/07/09 13:27:48;;;;;;;4.50;2.63;;;41.10;49.40;;;;;;10032827;28;20032;-60
2023/07/09 13:32:39;;;;;;;6.00;2.65;;;42.00;48.60;;;;;;10036376;28;20037;-60
2023/07/09 13:37:29;;;;;;;2.45;2.20;;;41.20;48.50;;;;;;10043681;28;20026;-61
2023/07/09 13:42:20;;;;;;;4.97;3.08;;;40.10;48.20;;;;;;10044160;28;20049;-60
2023/07/09 13:47:16;;;;;;;5.13;2.47;;;39.10;48.60;;;;;;10048809;28;20483;-61
2023/07/09 13:52:18;;;;;;;3.95;2.25;;;38.40;48.60;;;;;;10036576;28;20041;-62
2023/07/09 13:57:14;;;;;;;7.53;2.60;;;38.10;48.60;;;;;;10028443;28;20030;-60
2023/07/09 14:02:23;;;;;;;4.55;3.03;;;37.70;48.80;;;;;;10031758;28;20076;-60
2023/07/09 14:07:32;;;;;;;3.70;2.53;;;37.10;49.30;;;;;;10030116;28;20054;-60
2023/07/09 14:12:24;;;;;;;4.53;2.92;;;36.50;50.10;;;;;;10040099;28;20542;-61
2023/07/09 14:17:14;;;;;;;4.70;2.88;;;36.20;50.50;;;;;;10017201;28;20400;-60
2023/07/09 14:22:35;;;;;;;6.00;2.78;;;35.90;50.80;;;;;;10016191;28;20037;-60
2023/07/09 14:27:26;;;;;;;4.30;2.58;;;35.70;52.10;;;;;;10017222;28;20038;-62
2023/07/09 14:32:36;;;;;;;4.07;2.65;;;35.40;51.60;;;;;;10038707;28;20038;-61
2023/07/09 14:37:27;;;;;;;4.90;2.47;;;35.20;52.20;;;;;;10046224;28;20033;-61
2023/07/09 14:42:18;;;;;;;4.35;2.72;;;35.00;52.30;;;;;;10047304;28;20099;-62
2023/07/09 14:47:18;;;;;;;3.95;2.47;;;34.90;52.50;;;;;;10048802;28;20104;-62
2023/07/09 14:52:17;;;;;;;4.15;2.67;;;34.80;52.80;;;;;;10023409;28;20041;-61
2023/07/09 14:57:19;;;;;;;4.38;2.90;;;34.70;52.90;;;;;;10025163;28;20034;-60
2023/07/09 15:02:35;;;;;;;4.05;2.40;;;34.70;52.90;;;;;;10029373;28;20388;-61
2023/07/09 15:07:29;;;;;;;4.45;2.40;;;34.60;53.20;;;;;;10033371;28;20034;-61
2023/07/09 15:12:26;;;;;;;5.32;2.33;;;34.50;53.20;;;;;;10037261;28;20073;-61
2023/07/09 15:17:16;;;;;;;4.22;2.47;;;34.50;53.30;;;;;;10026965;28;20057;-60
2023/07/09 15:22:22;;;;;;;4.75;2.50;;;34.50;53.20;;;;;;10021170;28;20507;-58
2023/07/09 15:27:13;;;;;;;5.25;2.17;;;34.70;52.90;;;;;;10030536;28;20072;-61
2023/07/09 15:32:04;;;;;;;4.57;2.53;;;35.10;52.60;;;;;;10035365;28;20404;-60
2023/07/09 15:36:54;;;;;;;6.95;3.30;;;35.50;52.30;;;;;;10041594;28;20026;-62
2023/07/09 15:41:45;;;;;;;6.00;2.28;;;36.50;51.70;;;;;;10043066;28;20120;-62
2023/07/09 15:46:36;;;;;;;15.13;8.60;;;37.60;51.50;;;;;;10047759;28;20539;-62
2023/07/09 15:51:26;;;;;;;14.63;10.18;;;37.70;50.50;;;;;;10030728;28;20180;-61
2023/07/09 15:56:29;;;;;;;9.43;6.73;;;38.80;49.90;;;;;;10021827;28;20029;-60
2023/07/09 16:01:20;;;;;;;6.55;3.55;;;41.20;48.20;;;;;;10020484;28;20091;-61
2023/07/09 16:06:11;;;;;;;3.70;2.55;;;42.80;47.30;;;;;;10028093;28;20511;-62
2023/07/09 16:11:12;;;;;;;6.45;3.35;;;43.70;46.30;;;;;;10036955;28;20041;-60
2023/07/09 16:16:03;;;;;;;3.38;2.67;;;42.00;46.80;;;;;;10024902;28;20218;-61
2023/07/09 16:20:55;;;;;;;3.38;2.80;;;42.50;46.70;;;;;;10015423;28;20718;-61
2023/07/09 16:25:47;;;;;;;3.75;2.25;;;44.70;45.30;;;;;;10025587;28;20412;-61
2023/07/09 16:30:38;;;;;;;6.20;2.55;;;44.60;44.80;;;;;;10029757;28;20048;-61
2023/07/09 16:35:30;;;;;;;3.30;2.35;;;46.30;43.70;;;;;;10036447;28;20032;-60
2023/07/09 16:40:27;;;;;;;4.72;2.60;;;45.40;43.90;;;;;;10036806;28;20036;-61
2023/07/09 16:45:20;;;;;;;5.03;2.17;;;45.70;43.30;;;;;;10023515;28;20041;-61
2023/07/09 16:50:23;;;;;;;6.75;3.20;;;46.80;42.60;;;;;;10049546;28;20121;-61
2023/07/09 16:55:28;;;;;;;5.03;2.22;;;47.60;41.60;;;;;;10043947;28;20033;-60
2023/07/09 17:00:28;;;;;;;3.38;2.30;;;46.10;42.20;;;;;;10027235;28;20038;-63
2023/07/09 17:05:18;;;;;;;3.03;2.17;;;45.40;42.40;;;;;;10036357;28;20025;-61
2023/07/09 17:10:11;;;;;;;4.25;2.55;;;45.90;41.90;;;;;;10038784;28;20036;-62
2023/07/09 17:15:25;;;;;;;4.93;2.60;;;45.10;42.20;;;;;;10042068;28;20411;-62
2023/07/09 17:20:16;;;;;;;6.25;2.85;;;45.70;41.00;;;;;;10049205;28;20045;-61
2023/07/09 17:25:34;;;;;;;5.40;2.40;;;44.10;42.10;;;;;;10028665;28;20388;-61
2023/07/09 17:30:27;;;;;;;4.13;2.83;;;43.40;41.70;;;;;;10024540;28;20296;-60
2023/07/09 17:35:18;;;;;;;3.72;2.30;;;43.30;41.90;;;;;;10036137;28;20034;-62
2023/07/09 17:40:25;;;;;;;5.47;2.10;;;41.10;42.90;;;;;;10040115;28;20124;-60
2023/07/09 17:45:16;;;;;;;6.68;3.40;;;39.50;43.70;;;;;;10025417;28;20061;-60
2023/07/09 17:50:18;;;;;;;4.50;2.65;;;38.70;43.80;;;;;;10042241;28;20057;-61
2023/07/09 17:55:11;;;;;;;4.82;3.78;;;38.10;44.00;;;;;;10027969;28;20045;-62
2023/07/09 18:00:02;;;;;;;;;;;37.70;44.30;;;;;;10028189;28;20116;-62
2023/07/09 18:04:55;;;;;;;6.35;3.17;;;37.40;44.50;;;;;;10034864;28;19963;-62
2023/07/09 18:09:46;;;;;;;6.22;3.00;;;37.30;44.60;;;;;;10048011;28;20124;-61
2023/07/09 18:14:38;;;;;;;6.80;4.22;;;37.10;45.10;;;;;;10047838;28;20472;-61
2023/07/09 18:19:28;;;;;;;5.63;3.67;;;37.10;45.40;;;;;;10021630;28;20110;-60
2023/07/09 18:24:20;;;;;;;4.95;2.15;;;36.90;45.60;;;;;;10029466;28;20030;-61
2023/07/09 18:29:41;;;;;;;10.52;4.50;;;36.80;46.10;;;;;;10034222;28;20026;-61
2023/07/09 18:34:34;;;;;;;8.98;4.30;;;36.70;46.70;;;;;;10030401;28;20140;-61
2023/07/09 18:39:24;;;;;;;6.15;3.15;;;36.70;47.00;;;;;;10037707;28;20052;-62
2023/07/09 18:44:21;;;;;;;7.70;2.65;;;36.40;47.40;;;;;;10034323;28;20079;-60
2023/07/09 18:49:12;;;;;;;6.93;3.53;;;36.10;48.20;;;;;;10049931;28;20042;-62
2023/07/09 18:54:17;;;;;;;8.15;4.82;;;35.90;48.60;;;;;;10047562;28;20068;-60
2023/07/09 18:59:18;;;;;;;8.98;6.15;;;35.70;49.30;;;;;;10028559;28;20049;-61
2023/07/09 19:04:17;;;;;;;11.13;5.90;;;35.50;49.70;;;;;;10030250;28;20033;-60
2023/07/09 19:09:15;;;;;;;6.95;4.18;;;35.30;50.10;;;;;;10042109;28;20044;-60
2023/07/09 19:14:06;;;;;;;6.82;3.10;;;35.20;50.30;;;;;;10043988;28;20034;-60
2023/07/09 19:18:57;;;;;;;4.88;3.78;;;35.00;50.50;;;;;;10043363;28;20483;-62
2023/07/09 19:23:47;;;;;;;9.00;4.22;;;34.90;50.90;;;;;;10023299;28;20292;-60
2023/07/09 19:28:38;;;;;;;6.88;4.03;;;34.70;51.20;;;;;;10031975;28;20365;-61
2023/07/09 19:33:37;;;;;;;8.65;4.60;;;34.50;51.50;;;;;;10036982;28;20040;-60
2023/07/09 19:38:28;;;;;;;10.50;4.45;;;34.40;51.80;;;;;;10031972;28;20436;-60
2023/07/09 19:43:19;;;;;;;8.13;4.53;;;34.30;52.20;;;;;;10044351;28;20104;-60
2023/07/09 19:48:16;;;;;;;8.23;4.25;;;34.20;52.60;;;;;;10048423;28;20516;-61
2023/07/09 19:53:21;;;;;;;6.55;4.63;;;34.10;53.00;;;;;;10005390;28;20060;-60
2023/07/09 19:58:11;;;;;;;7.97;3.83;;;34.00;53.40;;;;;;10012781;28;20116;-59
2023/07/09 20:03:02;;;;;;;7.10;4.22;;;34.00;53.40;;;;;;10020046;28;20113;-60
2023/07/09 20:07:56;;;;;;;8.20;3.78;;;33.90;53.90;;;;;;10021844;28;20030;-61
2023/07/09 20:12:51;;;;;;;7.38;4.10;;;33.80;53.90;;;;;;10040365;28;20496;-60
2023/07/09 20:17:41;;;;;;;6.10;4.35;;;33.80;53.80;;;;;;10045736;28;20112;-60
2023/07/09 20:22:32;;;;;;;8.68;3.80;;;33.70;53.80;;;;;;10014222;28;20509;-61
2023/07/09 20:27:23;;;;;;;7.40;3.92;;;33.70;54.10;;;;;;10027131;28;20030;-62
2023/07/09 20:32:17;;;;;;;8.85;4.32;;;33.50;54.20;;;;;;10030542;28;20049;-60
2023/07/09 20:37:09;;;;;;;8.60;4.20;;;33.50;54.40;;;;;;10030766;28;20053;-60
2023/07/09 20:42:01;;;;;;;6.68;4.53;;;33.50;54.70;;;;;;10029749;28;20042;-61
2023/07/09 20:46:52;;;;;;;7.60;3.92;;;33.40;54.80;;;;;;10028434;28;20073;-62
2023/07/09 20:51:43;;;;;;;9.25;4.60;;;33.20;55.00;;;;;;10044054;28;20045;-60
2023/07/09 20:56:34;;;;;;;7.25;3.83;;;33.10;55.00;;;;;;10016545;28;20092;-61
2023/07/09 21:01:24;;;;;;;7.45;4.03;;;33.10;55.30;;;;;;10020514;28;20026;-62
2023/07/09 21:06:16;;;;;;;12.35;5.72;;;32.90;55.40;;;;;;10026127;28;20142;-61
2023/07/09 21:11:07;;;;;;;6.53;3.97;;;32.80;55.50;;;;;;10044742;28;20042;-60
2023/07/09 21:15:59;;;;;;;10.15;4.28;;;32.60;56.00;;;;;;10048255;28;20503;-59
2023/07/09 21:20:49;;;;;;;10.88;4.20;;;32.50;56.10;;;;;;10019707;28;20029;-60
2023/07/09 21:25:40;;;;;;;8.93;3.83;;;32.30;56.70;;;;;;10032368;28;20020;-60
2023/07/09 21:30:31;;;;;;;6.88;3.58;;;32.20;57.10;;;;;;10032457;28;20048;-60
2023/07/09 21:35:25;;;;;;;13.23;5.72;;;32.20;57.20;;;;;;10033670;28;20422;-60
2023/07/09 21:40:35;;;;;;;8.75;4.20;;;32.10;57.60;;;;;;10038600;28;20492;-60
2023/07/09 21:45:35;;;;;;;8.75;3.13;;;32.00;57.90;;;;;;10039701;28;20145;-60
2023/07/09 21:50:25;;;;;;;4.45;2.42;;;31.60;58.40;;;;;;10042508;28;20124;-62
2023/07/09 21:55:21;;;;;;;4.57;3.03;;;31.60;58.90;;;;;;10028231;28;20116;-60
2023/07/09 22:00:17;;;;;;;5.55;3.08;;;31.40;59.50;;;;;;10026282;28;20495;-61
2023/07/09 22:05:19;;;;;;;5.55;3.25;;;31.00;60.00;;;;;;10035785;28;20120;-60
2023/07/09 22:10:12;;;;;;;4.40;2.55;;;30.80;60.60;;;;;;10039759;28;20032;-61
2023/07/09 22:15:14;;;;;;;5.93;2.85;;;30.80;60.80;;;;;;10058686;28;20045;-61
2023/07/09 22:20:07;;;;;;;4.28;3.33;;;30.70;61.30;;;;;;10025464;28;20034;-62
2023/07/09 22:24:58;;;;;;;4.60;2.92;;;30.50;61.50;;;;;;10029482;28;20044;-62
2023/07/09 22:29:49;;;;;;;8.57;4.22;;;30.30;62.10;;;;;;10034040;28;20391;-61
2023/07/09 22:34:40;;;;;;;5.68;3.03;;;30.20;62.60;;;;;;10038461;28;20034;-61
2023/07/09 22:39:30;;;;;;;4.10;2.65;;;30.30;63.10;;;;;;10037131;28;20034;-61
2023/07/09 22:44:21;;;;;;;5.35;3.03;;;30.10;63.80;;;;;;10041450;28;20049;-61
2023/07/09 22:49:16;;;;;;;5.07;2.75;;;29.90;64.90;;;;;;10044417;28;20101;-60
2023/07/09 22:54:10;;;;;;;6.10;2.80;;;30.00;65.10;;;;;;10062530;23;20549;-61
2023/07/09 22:59:01;;;;;;;4.70;3.05;;;30.10;65.60;;;;;;10058013;28;20499;-61
2023/07/09 23:03:52;;;;;;;8.27;4.15;;;30.10;65.90;;;;;;10058887;28;20033;-60
2023/07/09 23:08:43;;;;;;;5.38;3.30;;;30.00;66.40;;;;;;10058783;28;20053;-59
2023/07/09 23:13:36;;;;;;;3.92;2.75;;;29.90;66.90;;;;;;10057981;28;20384;-60
2023/07/09 23:18:26;;;;;;;6.13;3.35;;;30.00;67.10;;;;;;10058204;28;20353;-58
2023/07/09 23:23:17;;;;;;;6.05;3.35;;;29.80;67.40;;;;;;10057521;28;20109;-60
2023/07/09 23:28:11;;;;;;;5.35;3.17;;;29.90;67.70;;;;;;10058734;28;20033;-59
2023/07/09 23:33:29;;;;;;;5.28;2.60;;;30.10;67.90;;;;;;10057150;28;20037;-60
2023/07/09 23:38:20;;;;;;;6.22;3.70;;;30.10;68.40;;;;;;10054503;28;20400;-61
2023/07/09 23:43:16;;;;;;;7.70;3.15;;;30.10;68.10;;;;;;10054083;28;20029;-59
2023/07/09 23:48:23;;;;;;;6.53;3.45;;;30.00;68.30;;;;;;10043333;28;20033;-59
2023/07/09 23:53:23;;;;;;;9.80;3.63;;;29.90;68.90;;;;;;10026310;28;20038;-59
2023/07/09 23:58:24;;;;;;;6.30;2.92;;;29.90;69.10;;;;;;10040772;28;20128;-62
